Terminal Aerodrome Forecast
Issued by NWS

Home | Current Version | Previous Version | Text Only | Print | Product List | Glossary On
Versions: 1 2 3 4 5 6 7 8 9 10 11 12 13 14 15 16 17 18 19 20
218
FTUS41 KBTV 241738
TAFMSS
TAF
KMSS 241738Z 2418/2518 21012G22KT P6SM BKN035
     FM242100 20009KT P6SM BKN100
     FM250000 20009KT P6SM BKN120 WS020/22040KT
     FM251200 21009KT P6SM VCSH OVC060
     FM251300 21010KT P6SM VCSH OVC050
     FM251500 22012G21KT P6SM VCSH OVC025=

USA.gov is the U.S. government's official web portal to all federal, state and local government web resources and services.